Time;durP1;ratioP1;P1;durP2;ratioP2;P2;SDS_P1;SDS_P2;PMS_P1;PMS_P2;Temp;Humidity;BMP_temperature;BMP_pressure;BME280_temperature;BME280_humidity;BME280_pressure;Samples;Min_cycle;Max_cycle;Signal;HPM_P1;HPM_P2
2020/12/24 00:00:46;;;;;;;2.90;1.77;;;;;;;10.84;67.86;98308.72;6035549;23;20249;-84
2020/12/24 00:03:14;;;;;;;2.95;1.50;;;;;;;10.92;66.82;98316.19;6027897;23;20286;-87
2020/12/24 00:05:41;;;;;;;3.60;1.55;;;;;;;10.98;65.55;98313.84;6043018;23;20201;-87
2020/12/24 00:08:09;;;;;;;8.15;2.03;;;;;;;10.93;65.17;98301.75;6049456;23;20189;-87
2020/12/24 00:10:36;;;;;;;6.50;2.22;;;;;;;10.93;64.99;98296.38;6021659;23;20213;-87
2020/12/24 00:13:04;;;;;;;3.53;2.45;;;;;;;10.87;65.01;98280.75;6027304;23;20278;-87
2020/12/24 00:15:31;;;;;;;4.57;2.20;;;;;;;10.79;65.66;98304.72;6030561;23;20201;-89
2020/12/24 00:18:15;;;;;;;6.72;1.90;;;;;;;10.80;66.70;98323.38;6037646;23;20217;-88
2020/12/24 00:20:45;;;;;;;4.72;2.00;;;;;;;10.78;66.06;98330.72;6034338;23;20169;-89
2020/12/24 00:23:12;;;;;;;7.28;2.13;;;;;;;10.72;67.05;98306.16;6013162;23;20229;-88
2020/12/24 00:25:40;;;;;;;4.45;2.80;;;;;;;10.68;67.76;98308.25;6009426;23;20193;-89
2020/12/24 00:28:07;;;;;;;8.40;2.33;;;;;;;10.69;67.71;98309.09;6000240;23;20234;-87
2020/12/24 00:30:40;;;;;;;4.68;1.92;;;;;;;10.69;68.13;98293.81;6050597;23;20221;-84
2020/12/24 00:33:09;;;;;;;6.10;1.80;;;;;;;10.69;68.02;98284.88;6004349;23;20226;-87
2020/12/24 00:35:41;;;;;;;4.63;2.35;;;;;;;10.71;68.60;98280.22;6025593;23;20200;-87
2020/12/24 00:38:08;;;;;;;5.00;1.83;;;;;;;10.62;69.45;98292.59;6064095;23;20184;-87
2020/12/24 00:40:37;;;;;;;4.80;1.50;;;;;;;10.64;70.08;98308.59;6046374;23;20205;-87
2020/12/24 00:43:05;;;;;;;4.82;1.70;;;;;;;10.53;69.96;98320.19;6063897;23;20212;-87
2020/12/24 00:45:33;;;;;;;6.05;2.08;;;;;;;10.47;70.08;98301.00;6094731;23;20220;-87
2020/12/24 00:48:04;;;;;;;4.85;2.10;;;;;;;10.42;70.71;98314.78;6048428;23;20228;-87
2020/12/24 00:50:31;;;;;;;6.25;1.98;;;;;;;10.41;70.77;98294.25;6073080;23;20168;-87
2020/12/24 00:52:58;;;;;;;7.53;3.22;;;;;;;10.38;71.08;98305.25;6017356;23;20296;-87
2020/12/24 00:55:26;;;;;;;7.95;2.33;;;;;;;10.36;71.77;98283.03;6063754;23;20247;-87
2020/12/24 00:57:57;;;;;;;4.47;2.00;;;;;;;10.37;71.43;98302.69;6070884;23;20268;-87
2020/12/24 01:00:29;;;;;;;7.60;2.08;;;;;;;10.37;71.49;98324.19;6050756;23;20212;-87
2020/12/24 01:02:57;;;;;;;3.45;2.05;;;;;;;10.32;72.34;98321.84;6059387;23;20216;-87
2020/12/24 01:05:24;;;;;;;5.15;2.53;;;;;;;10.43;71.49;98319.22;6059353;23;20189;-87
2020/12/24 01:07:53;;;;;;;4.47;2.08;;;;;;;10.37;70.40;98325.06;6054439;23;20208;-87
2020/12/24 01:10:20;;;;;;;13.18;2.20;;;;;;;10.37;70.43;98308.94;6074657;23;20238;-88
2020/12/24 01:12:48;;;;;;;5.35;1.90;;;;;;;10.26;69.32;98297.28;6025449;23;20219;-87
2020/12/24 01:15:44;;;;;;;7.45;1.83;;;;;;;10.20;69.39;98306.69;6019781;23;20213;-88
2020/12/24 01:18:29;;;;;;;5.95;1.90;;;;;;;10.12;68.62;98305.56;6010845;23;20212;-88
2020/12/24 01:21:03;;;;;;;4.53;1.92;;;;;;;10.06;68.81;98301.53;6047826;23;20208;-87
2020/12/24 01:23:35;;;;;;;6.68;2.25;;;;;;;10.04;69.21;98324.09;5999703;23;20178;-85
2020/12/24 01:26:08;;;;;;;3.90;1.90;;;;;;;10.04;69.22;98324.97;6052602;23;20188;-87
2020/12/24 01:28:38;;;;;;;5.32;1.90;;;;;;;10.02;68.95;98297.31;6048476;23;20208;-87
2020/12/24 01:31:05;;;;;;;4.07;2.20;;;;;;;10.01;68.54;98294.72;6030477;23;20255;-87
2020/12/24 01:33:32;;;;;;;3.65;1.83;;;;;;;10.00;68.65;98310.00;6044856;23;20231;-87
2020/12/24 01:35:59;;;;;;;6.70;2.30;;;;;;;9.99;69.47;98294.00;6049504;23;20202;-87
2020/12/24 01:38:31;;;;;;;7.45;2.08;;;;;;;10.02;69.39;98312.59;6025670;23;20168;-87
2020/12/24 01:41:04;;;;;;;4.25;1.80;;;;;;;10.00;69.78;98320.75;6046307;23;20231;-87
2020/12/24 01:43:33;;;;;;;6.25;3.08;;;;;;;10.06;69.06;98325.69;6023587;23;20220;-87
2020/12/24 01:46:02;;;;;;;8.77;2.10;;;;;;;10.07;69.29;98326.53;6038163;23;20213;-87
2020/12/24 01:48:28;;;;;;;9.25;2.30;;;;;;;10.04;68.72;98324.97;6036945;23;20242;-87
2020/12/24 01:50:55;;;;;;;10.10;2.30;;;;;;;10.11;68.45;98322.66;6046751;23;20216;-87
2020/12/24 01:53:23;;;;;;;3.08;1.90;;;;;;;10.05;68.99;98313.25;6059496;23;20154;-87
2020/12/24 01:55:56;;;;;;;8.98;2.47;;;;;;;9.90;70.41;98308.16;6032088;23;20261;-87
2020/12/24 01:58:23;;;;;;;6.50;2.10;;;;;;;9.76;70.12;98300.28;6036767;23;20194;-87
2020/12/24 02:01:15;;;;;;;8.05;1.88;;;;;;;9.76;69.85;98303.81;6037750;23;20190;-87
2020/12/24 02:03:41;;;;;;;6.40;2.03;;;;;;;9.74;70.52;98318.31;6018972;23;20189;-87
2020/12/24 02:06:10;;;;;;;4.75;2.10;;;;;;;9.68;70.46;98313.41;6049714;23;20197;-88
2020/12/24 02:08:55;;;;;;;3.95;1.60;;;;;;;9.64;70.00;98307.41;6036169;23;20213;-88
2020/12/24 02:11:24;;;;;;;4.60;2.00;;;;;;;9.57;70.59;98299.94;6015140;23;20180;-87
2020/12/24 02:13:53;;;;;;;5.47;2.00;;;;;;;9.48;70.76;98295.25;6052819;23;20201;-87
2020/12/24 02:16:19;;;;;;;6.35;2.38;;;;;;;9.49;69.78;98292.47;6050403;23;20193;-88
2020/12/24 02:18:50;;;;;;;5.68;1.80;;;;;;;9.37;69.62;98279.94;6081929;23;20240;-86
2020/12/24 02:21:19;;;;;;;11.63;2.20;;;;;;;9.42;69.76;98290.34;6057225;23;20189;-86
2020/12/24 02:23:45;;;;;;;5.63;2.53;;;;;;;9.32;70.99;98283.97;6034219;23;20177;-87
2020/12/24 02:26:11;;;;;;;3.70;1.70;;;;;;;9.34;69.50;98287.38;6058692;23;20161;-87
2020/12/24 02:28:46;;;;;;;2.95;1.75;;;;;;;9.25;69.43;98272.81;6079151;23;20207;-88
2020/12/24 02:31:16;;;;;;;4.57;1.88;;;;;;;9.18;70.57;98257.31;6016080;23;20216;-87
2020/12/24 02:33:42;;;;;;;8.27;1.88;;;;;;;9.20;69.92;98260.72;6001472;23;20209;-87
2020/12/24 02:36:09;;;;;;;9.95;2.20;;;;;;;9.16;70.40;98251.16;6005214;23;20208;-87
2020/12/24 02:38:38;;;;;;;5.07;1.85;;;;;;;9.16;70.26;98245.81;6065294;23;20164;-87
2020/12/24 02:41:04;;;;;;;3.60;1.77;;;;;;;9.12;70.05;98241.66;6068909;23;20495;-86
2020/12/24 02:43:31;;;;;;;6.28;1.63;;;;;;;9.11;70.17;98231.88;6088889;23;20219;-87
2020/12/24 02:45:57;;;;;;;5.57;2.75;;;;;;;9.07;70.21;98233.09;6060936;23;20233;-87
2020/12/24 02:48:23;;;;;;;7.40;2.50;;;;;;;9.03;71.73;98240.50;6086722;23;20599;-86
2020/12/24 02:50:49;;;;;;;5.05;2.20;;;;;;;9.04;70.15;98230.63;6063568;23;20172;-87
2020/12/24 02:53:15;;;;;;;5.13;2.00;;;;;;;9.05;70.12;98225.16;6046930;23;20172;-86
2020/12/24 02:55:42;;;;;;;8.25;2.72;;;;;;;9.04;71.36;98222.56;6065176;23;20212;-87
2020/12/24 02:58:08;;;;;;;6.68;1.80;;;;;;;9.05;70.08;98226.97;6062138;23;20245;-87
2020/12/24 03:00:34;;;;;;;7.18;2.20;;;;;;;8.94;71.99;98227.75;6062396;23;20295;-87
2020/12/24 03:03:00;;;;;;;13.70;2.80;;;;;;;8.98;69.90;98229.25;6043064;23;20196;-86
2020/12/24 03:05:27;;;;;;;4.85;2.00;;;;;;;8.96;70.02;98227.66;6077908;23;20196;-86
2020/12/24 03:07:53;;;;;;;9.00;2.97;;;;;;;8.84;71.35;98217.81;6046932;23;20240;-87
2020/12/24 03:10:19;;;;;;;5.15;2.28;;;;;;;8.81;71.14;98223.41;6081093;23;20209;-86
2020/12/24 03:12:47;;;;;;;6.63;2.20;;;;;;;8.85;70.80;98214.16;6069016;23;20236;-86
2020/12/24 03:15:14;;;;;;;8.82;2.70;;;;;;;8.78;70.63;98218.25;6063358;23;20615;-86
2020/12/24 03:17:40;;;;;;;6.55;2.53;;;;;;;8.79;70.19;98217.28;6044033;23;20188;-86
2020/12/24 03:20:16;;;;;;;6.03;1.90;;;;;;;8.69;70.88;98217.09;6057250;23;20207;-86
2020/12/24 03:22:44;;;;;;;6.28;2.10;;;;;;;8.69;70.61;98225.16;6079861;23;20188;-87
2020/12/24 03:25:14;;;;;;;5.45;2.28;;;;;;;8.74;71.39;98222.16;6110258;23;20212;-87
2020/12/24 03:27:46;;;;;;;8.73;1.95;;;;;;;8.74;70.51;98222.16;6050193;23;20657;-87
2020/12/24 03:30:13;;;;;;;5.53;2.40;;;;;;;8.74;71.40;98216.78;6069015;23;20206;-88
2020/12/24 03:32:40;;;;;;;5.85;1.80;;;;;;;8.72;70.19;98218.72;6099837;23;20606;-87
2020/12/24 03:35:07;;;;;;;9.15;2.10;;;;;;;8.63;70.66;98208.66;6073928;23;20279;-87
2020/12/24 03:37:33;;;;;;;5.55;2.42;;;;;;;8.60;71.09;98219.59;6093193;23;20290;-86
2020/12/24 03:40:00;;;;;;;3.50;2.33;;;;;;;8.68;72.33;98207.34;6087170;23;20231;-88
2020/12/24 03:42:28;;;;;;;6.78;2.00;;;;;;;8.84;71.08;98207.09;6052567;23;20211;-87
2020/12/24 03:44:55;;;;;;;5.78;2.20;;;;;;;8.89;69.68;98196.91;6137415;23;20223;-87
2020/12/24 03:47:30;;;;;;;9.70;1.92;;;;;;;8.94;71.27;98181.34;6093896;23;20187;-87
2020/12/24 03:49:56;;;;;;;8.32;1.95;;;;;;;8.94;70.88;98182.19;6136185;23;20260;-88
2020/12/24 03:52:23;;;;;;;9.77;2.20;;;;;;;8.99;68.60;98184.53;6089058;23;20209;-88
2020/12/24 03:54:55;;;;;;;7.45;2.50;;;;;;;8.97;69.76;98178.41;6094941;23;20291;-87
2020/12/24 03:57:22;;;;;;;8.20;2.40;;;;;;;9.06;70.07;98172.38;6045071;23;20263;-87
2020/12/24 03:59:53;;;;;;;10.82;2.40;;;;;;;9.02;69.24;98162.84;6035906;23;20276;-87
2020/12/24 04:03:13;;;;;;;7.82;2.00;;;;;;;9.07;69.75;98156.16;6090066;23;20164;-87
2020/12/24 04:05:45;;;;;;;6.93;2.63;;;;;;;9.10;70.03;98160.44;6059720;23;20741;-87
2020/12/24 04:08:13;;;;;;;6.80;2.45;;;;;;;9.06;68.79;98156.31;6102630;23;20232;-88
2020/12/24 04:10:43;;;;;;;4.07;2.15;;;;;;;9.03;68.58;98153.84;6105519;23;20218;-87
2020/12/24 04:13:12;;;;;;;6.57;2.38;;;;;;;8.98;69.57;98159.53;6081287;23;20578;-87
2020/12/24 04:15:41;;;;;;;6.70;2.00;;;;;;;8.99;69.19;98153.22;6036769;23;20272;-88
2020/12/24 04:18:08;;;;;;;7.88;2.00;;;;;;;8.97;68.75;98146.25;6071430;23;20223;-88
2020/12/24 04:20:54;;;;;;;4.80;1.75;;;;;;;9.03;68.01;98145.78;6092747;23;20226;-88
2020/12/24 04:23:23;;;;;;;4.57;1.90;;;;;;;9.05;67.14;98136.66;6120654;23;20168;-87
2020/12/24 04:25:53;;;;;;;4.82;1.92;;;;;;;9.19;67.06;98138.31;6133090;23;20215;-87
2020/12/24 04:28:20;;;;;;;4.75;1.63;;;;;;;9.22;66.18;98151.47;6093268;23;20219;-87
2020/12/24 04:31:08;;;;;;;7.85;2.05;;;;;;;9.31;65.76;98153.50;6078411;23;20209;-88
2020/12/24 04:33:43;;;;;;;3.90;2.22;;;;;;;9.39;65.61;98135.81;6090905;23;20157;-89
2020/12/24 04:36:17;;;;;;;7.85;1.80;;;;;;;9.32;65.80;98136.41;6151259;23;20195;-88
2020/12/24 04:38:44;;;;;;;2.47;1.63;;;;;;;9.34;65.67;98147.88;6119149;23;20146;-89
2020/12/24 04:41:11;;;;;;;5.78;1.80;;;;;;;9.32;66.53;98149.81;6114310;23;20187;-88
2020/12/24 04:43:38;;;;;;;4.38;1.60;;;;;;;9.29;67.49;98142.00;6077861;23;20203;-87
2020/12/24 04:46:13;;;;;;;5.65;2.15;;;;;;;9.28;69.69;98129.56;6072603;23;20218;-87
2020/12/24 04:48:48;;;;;;;6.85;1.90;;;;;;;9.18;68.78;98136.63;6094816;23;20246;-87
2020/12/24 04:51:44;;;;;;;5.05;1.90;;;;;;;9.16;70.09;98131.34;6048013;23;20202;-87
2020/12/24 04:54:13;;;;;;;3.75;1.95;;;;;;;9.13;70.44;98130.72;6096636;23;20204;-87
2020/12/24 04:56:47;;;;;;;6.75;1.65;;;;;;;9.08;71.24;98119.50;6091389;23;20164;-87
2020/12/24 04:59:18;;;;;;;6.75;2.60;;;;;;;9.14;72.64;98116.34;6082088;23;20194;-87
2020/12/24 05:01:50;;;;;;;6.32;2.00;;;;;;;9.13;71.21;98111.97;6142720;23;20210;-87
2020/12/24 05:04:24;;;;;;;7.85;2.28;;;;;;;9.03;71.54;98113.63;6096514;23;20215;-87
2020/12/24 05:07:22;;;;;;;7.60;2.67;;;;;;;9.15;72.13;98110.88;6075176;23;20206;-87
2020/12/24 05:09:52;;;;;;;4.72;1.92;;;;;;;9.10;73.12;98107.69;6072278;23;20648;-87
2020/12/24 05:12:31;;;;;;;4.88;1.83;;;;;;;9.09;72.42;98105.97;6097720;23;20207;-87
2020/12/24 05:15:00;;;;;;;4.72;2.10;;;;;;;9.00;72.90;98106.66;6099599;23;20221;-88
2020/12/24 05:17:26;;;;;;;7.18;2.08;;;;;;;9.08;73.12;98098.03;6104697;23;20251;-87
2020/12/24 05:20:01;;;;;;;2.80;1.92;;;;;;;9.07;73.15;98107.06;6077531;23;20229;-87
2020/12/24 05:22:28;;;;;;;7.15;2.10;;;;;;;9.05;73.49;98103.63;6076953;23;20289;-88
2020/12/24 05:25:10;;;;;;;7.28;1.65;;;;;;;9.03;74.75;98103.75;6125445;23;20214;-87
2020/12/24 05:27:40;;;;;;;7.47;1.83;;;;;;;9.03;74.43;98100.22;6124718;23;20565;-88
2020/12/24 05:30:06;;;;;;;5.75;2.45;;;;;;;9.07;74.94;98107.06;6125417;23;20200;-87
2020/12/24 05:32:33;;;;;;;5.00;1.92;;;;;;;8.97;75.56;98106.03;6103177;23;20175;-88
2020/12/24 05:35:10;;;;;;;5.78;2.63;;;;;;;9.05;75.72;98106.31;6020412;23;20215;-87
2020/12/24 05:37:37;;;;;;;6.10;2.00;;;;;;;8.89;76.97;98100.41;6124557;23;20218;-87
2020/12/24 05:40:25;;;;;;;6.38;1.77;;;;;;;8.94;76.53;98100.91;6080518;23;20207;-88
2020/12/24 05:42:57;;;;;;;3.80;2.10;;;;;;;8.88;77.18;98094.16;6146914;23;20206;-86
2020/12/24 05:45:32;;;;;;;7.13;1.90;;;;;;;8.92;76.67;98097.47;6148822;23;20262;-87
2020/12/24 05:48:08;;;;;;;5.90;1.80;;;;;;;8.86;75.47;98097.97;6101586;23;20207;-87
2020/12/24 05:50:35;;;;;;;4.97;2.15;;;;;;;8.84;76.48;98092.72;6076758;23;20218;-86
2020/12/24 05:53:08;;;;;;;7.28;2.30;;;;;;;8.79;77.44;98091.31;6128352;23;20163;-87
2020/12/24 05:55:36;;;;;;;7.55;2.50;;;;;;;8.71;77.74;98094.59;6104692;23;20215;-86
2020/12/24 05:58:04;;;;;;;7.20;1.92;;;;;;;8.66;78.63;98094.06;6104345;23;20199;-87
2020/12/24 06:00:32;;;;;;;9.70;2.30;;;;;;;8.61;80.10;98087.34;6080871;23;20218;-87
2020/12/24 06:03:10;;;;;;;5.25;2.35;;;;;;;8.66;79.71;98101.25;6091786;23;20211;-87
2020/12/24 06:05:53;;;;;;;10.60;2.65;;;;;;;8.61;80.33;98092.72;6128396;23;20191;-87
2020/12/24 06:08:22;;;;;;;7.07;1.73;;;;;;;8.46;80.21;98083.13;6127192;23;20264;-86
2020/12/24 06:11:06;;;;;;;8.00;1.92;;;;;;;8.42;80.59;98078.97;6124849;23;20577;-87
2020/12/24 06:13:38;;;;;;;6.65;2.35;;;;;;;8.48;80.49;98081.19;6101632;23;20207;-87
2020/12/24 06:16:06;;;;;;;5.60;2.17;;;;;;;8.44;79.44;98079.69;6100912;23;20231;-87
2020/12/24 06:18:35;;;;;;;4.53;1.70;;;;;;;8.37;79.68;98081.13;6102321;23;20226;-86
2020/12/24 06:21:02;;;;;;;6.90;1.80;;;;;;;8.38;80.20;98070.31;6132313;23;20250;-86
2020/12/24 06:23:37;;;;;;;2.38;1.65;;;;;;;8.47;78.90;98082.13;6093512;23;20199;-87
2020/12/24 06:26:07;;;;;;;2.42;1.77;;;;;;;8.45;80.33;98065.34;6139345;23;20206;-87
2020/12/24 06:28:35;;;;;;;3.92;2.00;;;;;;;8.34;78.63;98079.53;6138155;23;20651;-86
2020/12/24 06:31:03;;;;;;;4.00;1.80;;;;;;;8.34;79.05;98078.66;6088523;23;20214;-87
2020/12/24 06:33:30;;;;;;;2.13;1.40;;;;;;;8.29;79.62;98075.47;6089697;23;20718;-86
2020/12/24 06:35:57;;;;;;;5.82;1.67;;;;;;;8.29;79.90;98072.81;6127548;23;20207;-87
2020/12/24 06:38:45;;;;;;;4.85;1.52;;;;;;;8.22;80.71;98084.94;6082488;23;20163;-87
2020/12/24 06:41:26;;;;;;;6.20;1.77;;;;;;;8.15;80.60;98073.75;6127599;23;20657;-87
2020/12/24 06:43:53;;;;;;;6.00;1.85;;;;;;;8.04;80.51;98076.34;6127892;23;20207;-87
2020/12/24 06:46:19;;;;;;;4.43;1.65;;;;;;;7.98;80.75;98078.63;6126879;23;20238;-87
2020/12/24 06:49:03;;;;;;;7.68;1.95;;;;;;;8.06;82.33;98074.44;6126195;23;20266;-87
2020/12/24 06:51:49;;;;;;;9.05;1.92;;;;;;;8.11;81.22;98074.09;6077770;23;20242;-87
2020/12/24 06:54:20;;;;;;;4.55;2.00;;;;;;;8.15;81.81;98067.53;6125996;23;20597;-87
2020/12/24 06:56:47;;;;;;;10.40;1.40;;;;;;;8.13;81.55;98075.69;6076913;23;20219;-87
2020/12/24 06:59:21;;;;;;;5.50;1.70;;;;;;;8.17;81.38;98068.31;6081193;23;20565;-87
2020/12/24 07:02:01;;;;;;;6.25;1.63;;;;;;;8.21;81.18;98069.81;6125944;23;20211;-87
2020/12/24 07:04:38;;;;;;;4.75;1.70;;;;;;;8.17;81.93;98071.81;6077358;23;20672;-86
2020/12/24 07:07:06;;;;;;;5.15;1.80;;;;;;;8.21;82.34;98077.84;6101515;23;20203;-86
2020/12/24 07:09:32;;;;;;;3.45;1.30;;;;;;;8.17;80.97;98074.50;6076450;23;20215;-87
2020/12/24 07:12:00;;;;;;;6.63;1.92;;;;;;;8.15;81.30;98072.88;6076259;23;20210;-87
2020/12/24 07:14:38;;;;;;;2.72;1.40;;;;;;;7.96;81.28;98078.72;6104207;23;20193;-87
2020/12/24 07:17:13;;;;;;;3.05;1.45;;;;;;;7.99;81.81;98089.22;6151369;23;20206;-88
2020/12/24 07:19:45;;;;;;;3.88;1.50;;;;;;;7.91;81.81;98082.72;6124429;23;20206;-87
2020/12/24 07:22:15;;;;;;;2.40;1.20;;;;;;;7.95;81.68;98093.09;6100482;23;20203;-87
2020/12/24 07:24:55;;;;;;;4.32;1.65;;;;;;;7.92;81.76;98081.75;6125823;23;20211;-87
2020/12/24 07:27:23;;;;;;;3.88;1.52;;;;;;;7.91;81.75;98082.72;6125265;23;20214;-87
2020/12/24 07:29:49;;;;;;;4.85;1.70;;;;;;;7.92;81.70;98082.56;6076762;23;20179;-88
2020/12/24 07:32:18;;;;;;;2.15;1.20;;;;;;;7.98;81.26;98092.00;6152482;23;20178;-87
2020/12/24 07:34:45;;;;;;;2.95;1.20;;;;;;;7.90;81.68;98084.53;6100885;23;20262;-86
2020/12/24 07:37:11;;;;;;;1.40;1.20;;;;;;;7.86;80.77;98088.38;6149699;23;20293;-87
2020/12/24 07:39:37;;;;;;;5.30;1.30;;;;;;;7.85;80.83;98097.38;6076854;23;20712;-87
2020/12/24 07:42:03;;;;;;;2.80;1.45;;;;;;;7.76;80.46;98091.81;6124341;23;20551;-87
2020/12/24 07:44:30;;;;;;;2.72;1.30;;;;;;;7.79;80.85;98096.97;6104227;23;20199;-86
2020/12/24 07:47:02;;;;;;;2.13;1.20;;;;;;;7.67;80.58;98098.69;6124399;23;20303;-86
2020/12/24 07:49:29;;;;;;;3.75;1.65;;;;;;;7.65;80.43;98094.41;6101389;23;20276;-88
2020/12/24 07:51:56;;;;;;;4.22;1.42;;;;;;;7.58;80.59;98109.19;6163009;23;20203;-88
2020/12/24 07:54:25;;;;;;;3.10;1.30;;;;;;;7.62;82.04;98099.94;6105497;23;20222;-88
2020/12/24 07:56:52;;;;;;;2.20;1.10;;;;;;;7.53;80.45;98114.81;6079052;23;20175;-88
2020/12/24 07:59:21;;;;;;;1.73;1.10;;;;;;;7.57;81.28;98112.78;6108696;23;20174;-87
2020/12/24 08:01:48;;;;;;;1.55;1.05;;;;;;;7.50;82.08;98127.56;6081359;23;20204;-88
2020/12/24 08:04:15;;;;;;;1.45;1.20;;;;;;;7.60;82.29;98131.31;6127909;23;20685;-87
2020/12/24 08:06:44;;;;;;;1.88;1.40;;;;;;;7.58;81.56;98119.88;6104325;23;20270;-88
2020/12/24 08:09:15;;;;;;;2.38;1.20;;;;;;;7.59;81.42;98114.41;6080962;23;20207;-87
2020/12/24 08:11:51;;;;;;;4.20;3.90;;;;;;;7.54;81.35;98121.03;6125629;23;20613;-88
2020/12/24 08:14:22;;;;;;;1.73;1.13;;;;;;;7.61;81.98;98125.88;6132160;23;20211;-87
2020/12/24 08:16:49;;;;;;;4.22;1.27;;;;;;;7.47;81.99;98122.44;6079972;23;20266;-87
2020/12/24 08:19:31;;;;;;;1.80;1.00;;;;;;;7.43;82.59;98127.13;6128206;23;20214;-87
2020/12/24 08:22:06;;;;;;;2.55;1.17;;;;;;;7.45;82.83;98122.53;6095332;23;20590;-87
2020/12/24 08:24:39;;;;;;;1.92;1.50;;;;;;;7.44;83.83;98125.31;6104765;23;20231;-87
2020/12/24 08:27:21;;;;;;;1.70;1.10;;;;;;;7.45;83.63;98124.34;6028574;23;20239;-88
2020/12/24 08:29:56;;;;;;;2.13;1.20;;;;;;;7.51;84.37;98115.88;6070202;23;20575;-88
2020/12/24 08:32:40;;;;;;;1.38;1.27;;;;;;;7.51;83.40;98122.09;6066176;23;20167;-87
2020/12/24 08:35:10;;;;;;;2.05;1.45;;;;;;;7.56;84.02;98124.44;6082861;23;20191;-87
2020/12/24 08:37:36;;;;;;;2.88;1.70;;;;;;;7.64;85.09;98111.41;6106102;23;20227;-88
2020/12/24 08:40:23;;;;;;;1.85;1.30;;;;;;;7.69;83.29;98119.97;6101531;23;20313;-88
2020/12/24 08:43:00;;;;;;;2.25;1.20;;;;;;;7.72;82.70;98112.56;6073224;23;20226;-89
2020/12/24 08:45:27;;;;;;;3.80;1.60;;;;;;;7.77;82.36;98104.22;6121858;23;20218;-87
2020/12/24 08:47:53;;;;;;;2.28;1.70;;;;;;;7.97;83.81;98106.38;6125061;23;20270;-88
2020/12/24 08:50:32;;;;;;;3.65;1.35;;;;;;;8.05;82.29;98106.66;6104723;23;20191;-85
2020/12/24 08:52:59;;;;;;;1.55;1.42;;;;;;;8.16;82.17;98106.75;6096993;23;20290;-89
2020/12/24 08:55:27;;;;;;;2.72;1.48;;;;;;;8.30;81.90;98087.91;6072433;23;20301;-89
2020/12/24 08:57:55;;;;;;;2.03;1.45;;;;;;;8.33;81.84;98095.69;6120083;23;20291;-88
2020/12/24 09:00:24;;;;;;;3.97;1.50;;;;;;;8.20;81.22;98109.13;6072807;23;20211;-88
2020/12/24 09:02:51;;;;;;;3.28;1.50;;;;;;;8.17;81.57;98114.66;6073984;23;20254;-89
2020/12/24 09:05:25;;;;;;;2.58;1.52;;;;;;;8.29;82.06;98115.66;6113189;23;20186;-88
2020/12/24 09:07:52;;;;;;;5.95;2.17;;;;;;;8.38;82.60;98112.28;6119586;23;20235;-89
2020/12/24 09:10:26;;;;;;;1.80;1.52;;;;;;;8.26;81.98;98124.75;6141784;23;20203;-90
2020/12/24 09:12:57;;;;;;;2.58;1.65;;;;;;;8.35;82.00;98133.97;6089565;23;20203;-88
2020/12/24 09:15:27;;;;;;;2.45;1.40;;;;;;;8.21;82.11;98134.94;6074828;23;20211;-90
2020/12/24 09:18:03;;;;;;;3.22;1.23;;;;;;;8.17;82.01;98130.72;6110547;23;20167;-91
2020/12/24 09:20:31;;;;;;;2.00;1.70;;;;;;;8.29;82.96;98137.06;6081849;23;20215;-90
2020/12/24 09:23:00;;;;;;;2.25;1.40;;;;;;;8.40;81.95;98137.13;6121718;23;20211;-90
2020/12/24 09:25:41;;;;;;;3.17;1.50;;;;;;;8.47;81.78;98128.56;6075426;23;20207;-90
2020/12/24 09:28:26;;;;;;;2.03;1.42;;;;;;;8.52;82.13;98130.88;6121452;23;20294;-90
2020/12/24 09:30:55;;;;;;;2.13;1.30;;;;;;;8.44;80.89;98138.63;6118943;23;20210;-90
2020/12/24 09:33:21;;;;;;;1.70;1.52;;;;;;;8.36;81.90;98157.09;6118136;23;20209;-90
2020/12/24 09:35:48;;;;;;;1.63;1.10;;;;;;;8.37;81.80;98153.44;6070541;23;20218;-90
2020/12/24 09:38:14;;;;;;;3.72;1.63;;;;;;;8.45;82.47;98157.28;6122397;23;20187;-91
2020/12/24 09:40:41;;;;;;;1.73;1.35;;;;;;;8.39;81.82;98160.41;6071169;23;20266;-91
2020/12/24 09:46:47;;;;;;;3.50;1.10;;;;;;;8.50;83.57;98170.34;6107780;23;20591;-90
2020/12/24 09:49:15;;;;;;;1.30;1.15;;;;;;;8.39;83.16;98168.44;6046036;23;20215;-89
2020/12/24 09:51:47;;;;;;;1.20;0.95;;;;;;;8.38;82.80;98169.41;6010563;23;20206;-89
2020/12/24 09:54:36;;;;;;;2.15;1.40;;;;;;;8.40;83.59;98174.63;5965118;23;20711;-89
2020/12/24 09:57:02;;;;;;;2.05;1.35;;;;;;;8.45;83.58;98172.47;6043020;23;20203;-90
2020/12/24 09:59:32;;;;;;;1.40;1.20;;;;;;;8.45;83.15;98172.47;6075483;23;20167;-89
2020/12/24 10:01:58;;;;;;;1.83;1.17;;;;;;;8.42;83.29;98172.72;6072256;23;20253;-89
2020/12/24 10:04:24;;;;;;;2.10;1.70;;;;;;;8.51;82.97;98172.91;6070729;23;20578;-88
2020/12/24 10:06:52;;;;;;;1.80;1.52;;;;;;;8.65;82.90;98179.94;6144861;23;20211;-89
2020/12/24 10:09:18;;;;;;;2.88;1.60;;;;;;;8.74;82.68;98169.38;6071798;23;20688;-89
2020/12/24 10:11:50;;;;;;;1.65;1.20;;;;;;;9.01;82.84;98174.56;6070663;23;20179;-89
2020/12/24 10:14:16;;;;;;;1.83;1.58;;;;;;;8.96;81.81;98176.72;6073617;23;20230;-89
2020/12/24 10:16:47;;;;;;;2.10;1.40;;;;;;;8.89;82.00;98175.47;6077268;23;20238;-90
2020/12/24 10:19:13;;;;;;;1.75;1.42;;;;;;;8.94;81.90;98187.53;6093890;23;20207;-90
2020/12/24 10:21:44;;;;;;;1.45;1.27;;;;;;;8.93;81.90;98185.00;6071390;23;20780;-89
2020/12/24 10:24:31;;;;;;;2.85;1.27;;;;;;;8.91;81.62;98182.41;6073763;23;20210;-88
2020/12/24 10:27:09;;;;;;;1.83;1.15;;;;;;;9.06;81.37;98191.16;6112767;23;20206;-89
2020/12/24 10:29:37;;;;;;;1.60;1.20;;;;;;;9.02;81.70;98189.66;6122255;23;20187;-87
2020/12/24 10:32:33;;;;;;;2.28;1.27;;;;;;;9.04;81.85;98187.72;6084580;23;20175;-88
2020/12/24 10:35:19;;;;;;;2.55;1.92;;;;;;;9.12;81.78;98191.53;6127377;23;20229;-90
2020/12/24 10:37:46;;;;;;;1.20;0.90;;;;;;;9.27;81.39;98194.91;6094708;23;20211;-90
2020/12/24 10:40:12;;;;;;;1.23;1.10;;;;;;;9.41;80.77;98198.28;6141935;23;20202;-89
2020/12/24 10:42:46;;;;;;;1.65;1.20;;;;;;;9.60;79.61;98195.91;6062250;23;20586;-88
2020/12/24 10:45:13;;;;;;;1.65;1.25;;;;;;;9.82;78.14;98192.44;6054336;23;20203;-89
2020/12/24 10:47:39;;;;;;;1.40;1.02;;;;;;;10.15;78.72;98197.88;6103974;23;20207;-88
2020/12/24 10:50:10;;;;;;;1.40;1.20;;;;;;;9.95;78.14;98195.88;6107153;23;20171;-91
2020/12/24 10:52:37;;;;;;;1.50;1.20;;;;;;;10.01;78.34;98190.00;6131222;23;20207;-89
2020/12/24 10:55:09;;;;;;;2.20;1.70;;;;;;;10.05;78.09;98202.25;6111319;23;20242;-89
2020/12/24 10:57:56;;;;;;;2.30;2.10;;;;;;;10.53;77.41;98193.03;6110248;23;20286;-89
2020/12/24 11:00:35;;;;;;;2.47;1.50;;;;;;;10.71;76.47;98173.56;6129007;23;20235;-90
2020/12/24 11:03:16;;;;;;;1.90;1.38;;;;;;;11.10;75.73;98174.84;6083070;23;20251;-91
2020/12/24 11:05:51;;;;;;;2.38;2.10;;;;;;;11.06;74.59;98173.38;6088270;23;20187;-90
2020/12/24 11:08:28;;;;;;;2.70;1.85;;;;;;;10.64;74.87;98182.25;6085099;23;20187;-90
2020/12/24 11:10:55;;;;;;;1.63;1.52;;;;;;;10.44;76.07;98174.91;6077927;23;20210;-89
2020/12/24 11:13:28;;;;;;;2.05;1.70;;;;;;;10.36;75.85;98185.44;6122610;23;20211;-90
2020/12/24 11:15:57;;;;;;;1.45;1.20;;;;;;;10.17;75.65;98188.75;6125503;23;20211;-89
2020/12/24 11:18:23;;;;;;;2.40;1.48;;;;;;;10.25;76.73;98186.28;6097155;23;20206;-87
2020/12/24 11:20:50;;;;;;;1.38;1.27;;;;;;;10.25;76.00;98183.59;6068970;23;20175;-89
2020/12/24 11:23:17;;;;;;;1.98;1.40;;;;;;;10.09;75.62;98183.09;6081435;23;20167;-88
2020/12/24 11:25:43;;;;;;;2.17;1.50;;;;;;;9.87;76.24;98184.84;6124869;23;20270;-89
2020/12/24 11:28:14;;;;;;;2.70;1.55;;;;;;;9.87;77.02;98184.84;6091556;23;20199;-87
2020/12/24 11:30:43;;;;;;;2.13;1.90;;;;;;;9.88;76.77;98183.88;6128691;23;20656;-89
2020/12/24 11:34:08;;;;;;;1.40;1.30;;;;;;;9.82;77.01;98182.53;6121524;23;20213;-90
2020/12/24 11:36:37;;;;;;;1.50;1.38;;;;;;;9.72;77.00;98191.41;6091627;23;20262;-91
2020/12/24 11:39:05;;;;;;;1.58;1.48;;;;;;;9.63;77.37;98187.59;6097423;23;20207;-91
2020/12/24 11:41:34;;;;;;;1.60;1.40;;;;;;;9.68;77.73;98190.81;6131398;23;20175;-90
2020/12/24 11:46:52;;;;;;;2.58;1.63;;;;;;;9.78;77.84;98199.84;5969944;23;20202;-91
2020/12/24 11:49:52;;;;;;;5.18;1.52;;;;;;;9.78;77.05;98193.63;6084176;23;20203;-91
2020/12/24 11:53:08;;;;;;;1.67;1.48;;;;;;;9.61;77.52;98186.00;6117181;23;20217;-91
2020/12/24 11:55:53;;;;;;;2.50;1.52;;;;;;;9.40;78.20;98193.00;6077498;23;20227;-92
2020/12/24 11:59:17;;;;;;;1.60;1.40;;;;;;;9.50;78.33;98200.25;6072014;23;20199;-90
2020/12/24 12:02:15;;;;;;;1.70;1.60;;;;;;;9.52;77.65;98190.25;6032396;23;20650;-90
2020/12/24 12:04:59;;;;;;;2.13;1.60;;;;;;;9.63;77.99;98192.13;6089109;23;20195;-90
2020/12/24 12:08:17;;;;;;;2.17;1.45;;;;;;;9.46;77.56;98189.88;5960249;23;21000;-88